EGTE - Exeter Airport
Distance from station: E 5mi, 14km
Updated: 07/18/2018 10:50pm
Clear
Clear
 Wind from ENE
Wind: ENE 2 mph , 4 km/h
Temperature: 54°F , 12°C
Dew Point: 50°F , 10°C
Humidity: 88%
Barometer: 30.12 inHg , 1020 hPa
Summary: Clear
Visibility: greater than 7 miles , 10 km
2018/07/19 05:50 EGTE 190550Z 07002KT CAVOK 12/10 Q1020